Aérodrome :
LOGIN :

S'inscrire | Disclaimer

   EN    FR    IT 

 










Légende :    VFR   VFR Marginal   IFR   IFR Intensif   IFR Très Intensif
Visi : 
Plafond : 
>= 8 km
>= 3000ft
5 à 8 km
1000 à 3000 ft
1500m à 5 km
500 à 1000 ft
800 à 1500m
200 à 500 ft
< 800m
< 200 ft
Symboles :   Orages  Brouillard  Fortes neiges  Fortes précipitations  Vent > 20 kt
SIGMETs :   Divers  Orages  Givrage  Turbulence  Onde Orograph.  Cendres Volcan.







- Altitude de l'aérodrome : 302 ft
- Code IATA : MAH


LEMH - Menorca

DERNIER METAR :
  • 181800Z 35001KT 9999 FEW035 09/07 Q1020

METARs EXPIRÉS :
  • 181730Z 33002KT 9999 FEW038 10/07 Q1020
  • 181700Z 34003KT 300V010 9999 FEW035 11/07 Q1019
  • 181630Z 33005KT 290V010 9999 FEW026 12/06 Q1019
  • 181600Z 35007KT 310V020 9999 FEW026 12/06 Q1020
  • 181530Z 35008KT 320V020 9999 FEW027 12/07 Q1019

TAF TAF LEMH
Valide du 18 à 15h jusqu'au 19 à 15h UTC


181400Z 1815/1915 36016KT 9999 SCT030 TX15/1913Z TN06/1906Z
BECMG 1816/1818 34006KT
TEMPO 1909/1915 26008KT
Pas de NOTAMs connus pour ce terrain.



MET'MAP, la Météo Aéronautique d'un coup d'oeil ! - Copyright ORBIFLY Décembre 2007 - Disclaimer

ORBIFLY MET'MAP TEAM :

Programmation & Développement : Alexandra Zaïnal
Conception & Développement : Baudouin d'Aumeries
Co-Programmation & Développement : Marc-Olivier Méhu
Soutien technique & logistique : Manuel Goepfert

Contact : metmap@orbifly.com




SOURCES & CREDITS :

   NOAA